createdAt,value
2018-11-20T00:01:32.495Z,91.96
2018-11-20T00:04:19.919Z,91.72
2018-11-20T00:07:07.382Z,91.90
2018-11-20T00:09:54.860Z,91.90
2018-11-20T00:12:42.348Z,91.65
2018-11-20T00:15:29.811Z,91.55
2018-11-20T00:18:17.274Z,91.66
2018-11-20T00:21:04.705Z,91.57
2018-11-20T00:23:52.162Z,91.63
2018-11-20T00:26:39.593Z,91.35
2018-11-20T00:29:15.220Z,91.20
2018-11-20T00:32:02.677Z,91.16
2018-11-20T00:34:42.142Z,91.58
2018-11-20T00:37:29.575Z,91.73
2018-11-20T00:40:17.021Z,91.79
2018-11-20T00:43:04.505Z,92.06
2018-11-20T00:45:51.961Z,91.74
2018-11-20T00:48:39.377Z,91.72
2018-11-20T00:51:26.816Z,91.32
2018-11-20T00:54:03.518Z,91.21
2018-11-20T00:57:10.646Z,90.96
2018-11-20T00:59:58.567Z,91.51
2018-11-20T01:02:46.033Z,91.50
2018-11-20T01:05:33.500Z,91.56
2018-11-20T01:08:20.918Z,91.71
2018-11-20T01:11:08.364Z,91.58
2018-11-20T01:13:55.799Z,91.95
2018-11-20T01:16:43.214Z,92.12
2018-11-20T01:19:30.704Z,92.33
2018-11-20T01:22:18.120Z,92.78
2018-11-20T01:25:05.570Z,92.65
2018-11-20T01:27:52.979Z,92.39
2018-11-20T01:30:40.425Z,92.16
2018-11-20T01:33:27.866Z,91.84
2018-11-20T01:36:15.342Z,91.68
2018-11-20T01:39:02.752Z,91.46
2018-11-20T01:41:50.254Z,91.55
2018-11-20T01:44:37.696Z,91.86
2018-11-20T01:47:25.203Z,91.79
2018-11-20T01:50:12.634Z,91.68
2018-11-20T01:53:00.048Z,91.61
2018-11-20T01:55:47.461Z,90.95
2018-11-20T01:58:34.942Z,90.93
2018-11-20T02:01:22.443Z,91.09
2018-11-20T02:04:09.932Z,91.18
2018-11-20T02:06:57.328Z,91.29
2018-11-20T02:09:44.759Z,91.02
2018-11-20T02:12:32.862Z,90.99
2018-11-20T02:15:20.295Z,91.00
2018-11-20T02:18:08.335Z,91.11
2018-11-20T02:20:57.008Z,91.21
2018-11-20T02:23:35.229Z,91.34
2018-11-20T02:26:22.638Z,91.14
2018-11-20T02:29:10.077Z,91.15
2018-11-20T02:31:57.525Z,91.54
2018-11-20T02:34:45.198Z,92.00
2018-11-20T02:37:32.632Z,92.43
2018-11-20T02:40:20.098Z,92.32
2018-11-20T02:43:07.506Z,92.39
2018-11-20T02:45:54.926Z,92.75
2018-11-20T02:48:42.352Z,93.05
2018-11-20T02:51:29.925Z,93.02
2018-11-20T02:54:17.254Z,92.91
2018-11-20T02:57:04.685Z,92.83
2018-11-20T02:59:52.344Z,92.86
2018-11-20T03:02:39.817Z,93.37
2018-11-20T03:05:27.255Z,93.71
2018-11-20T03:08:14.716Z,93.15
2018-11-20T03:11:02.197Z,92.88
2018-11-20T03:13:49.631Z,92.30
2018-11-20T03:16:37.034Z,92.31
2018-11-20T03:19:24.657Z,92.22
2018-11-20T03:22:12.157Z,92.53
2018-11-20T03:24:59.615Z,92.54
2018-11-20T03:27:47.075Z,92.56
2018-11-20T03:30:58.750Z,92.07
2018-11-20T03:33:36.171Z,92.25
2018-11-20T03:36:23.718Z,92.25
2018-11-20T03:39:11.175Z,91.83
2018-11-20T03:41:58.703Z,91.97
2018-11-20T03:44:46.134Z,92.14
2018-11-20T03:47:33.588Z,91.91
2018-11-20T03:50:21.200Z,91.80
2018-11-20T03:53:08.707Z,91.62
2018-11-20T03:55:56.117Z,91.48
2018-11-20T03:58:43.638Z,91.74
2018-11-20T04:01:31.080Z,91.99
2018-11-20T04:04:18.541Z,92.19
2018-11-20T04:07:05.982Z,92.41
2018-11-20T04:09:53.428Z,92.52
2018-11-20T04:12:40.868Z,92.47
2018-11-20T04:15:28.353Z,92.69
2018-11-20T04:18:15.751Z,92.05
2018-11-20T04:21:03.166Z,92.03
2018-11-20T04:23:50.634Z,91.70
2018-11-20T04:26:38.063Z,91.68
2018-11-20T04:29:25.524Z,91.95
2018-11-20T04:32:22.050Z,92.36
2018-11-20T04:35:21.866Z,92.95
2018-11-20T04:38:09.305Z,92.60
2018-11-20T04:40:56.797Z,92.90
2018-11-20T04:43:44.188Z,93.03
2018-11-20T04:46:31.623Z,92.87
2018-11-20T04:49:19.082Z,92.96
2018-11-20T04:52:06.515Z,92.90
2018-11-20T04:54:53.950Z,92.84
2018-11-20T04:57:41.551Z,92.73
2018-11-20T05:00:28.887Z,92.87
2018-11-20T05:03:16.421Z,93.50
2018-11-20T05:06:03.917Z,93.05
2018-11-20T05:08:51.367Z,93.21
2018-11-20T05:11:38.820Z,93.67
2018-11-20T05:14:26.257Z,93.88
2018-11-20T05:17:13.666Z,93.42
2018-11-20T05:20:01.086Z,93.12
2018-11-20T05:22:49.664Z,93.40
2018-11-20T05:25:37.089Z,93.53
2018-11-20T05:28:24.621Z,93.61
2018-11-20T05:31:12.169Z,93.09
2018-11-20T05:33:59.472Z,92.82
2018-11-20T05:36:46.982Z,92.73
2018-11-20T05:39:34.524Z,92.64
2018-11-20T05:42:21.949Z,92.72
2018-11-20T05:45:09.357Z,92.87
2018-11-20T05:47:51.422Z,92.96
2018-11-20T05:50:38.872Z,92.93
2018-11-20T05:53:23.706Z,92.98
2018-11-20T05:56:11.151Z,92.96
2018-11-20T05:58:51.160Z,93.12
2018-11-20T06:01:38.605Z,93.02
2018-11-20T06:04:26.115Z,92.25
2018-11-20T06:07:13.538Z,92.76
2018-11-20T06:10:00.983Z,92.87
2018-11-20T06:12:48.502Z,92.65
2018-11-20T06:15:35.913Z,93.26
2018-11-20T06:18:23.330Z,93.18
2018-11-20T06:21:10.786Z,93.21
2018-11-20T06:23:58.277Z,93.17
2018-11-20T06:26:45.715Z,93.62
2018-11-20T06:29:33.150Z,93.48
2018-11-20T06:32:20.670Z,93.22
2018-11-20T06:35:08.174Z,92.85
2018-11-20T06:37:55.671Z,93.04
2018-11-20T06:40:43.144Z,93.70
2018-11-20T06:43:30.564Z,93.64
2018-11-20T06:46:18.081Z,93.37
2018-11-20T06:49:05.492Z,94.02
2018-11-20T06:51:52.924Z,94.25
2018-11-20T06:54:40.341Z,94.48
2018-11-20T06:57:27.901Z,94.57
2018-11-20T07:00:15.262Z,94.55
2018-11-20T07:03:02.713Z,94.39
2018-11-20T07:05:50.126Z,93.95
2018-11-20T07:08:37.581Z,94.31
2018-11-20T07:11:13.522Z,94.52
2018-11-20T07:14:24.556Z,94.38
2018-11-20T07:17:13.686Z,94.39
2018-11-20T07:20:01.146Z,94.74
2018-11-20T07:22:48.582Z,94.34
2018-11-20T07:25:36.045Z,94.72
2018-11-20T07:28:23.666Z,94.47
2018-11-20T07:31:11.362Z,94.42
2018-11-20T07:33:58.734Z,94.58
2018-11-20T07:36:46.368Z,94.63
2018-11-20T07:39:33.635Z,94.42
2018-11-20T07:42:21.066Z,94.33
2018-11-20T07:45:08.465Z,94.48
2018-11-20T07:47:55.904Z,94.61
2018-11-20T07:50:43.338Z,94.96
2018-11-20T07:53:30.809Z,94.93
2018-11-20T07:56:18.407Z,95.42
2018-11-20T07:59:05.674Z,95.90
2018-11-20T08:01:46.571Z,96.04
2018-11-20T08:04:34.012Z,95.80
2018-11-20T08:07:21.429Z,96.37
2018-11-20T08:10:08.932Z,96.73
2018-11-20T08:12:56.309Z,96.55
2018-11-20T08:15:43.765Z,96.58
2018-11-20T08:18:31.210Z,96.79
2018-11-20T08:21:18.641Z,97.61
2018-11-20T08:24:06.051Z,97.21
2018-11-20T08:26:53.514Z,97.09
2018-11-20T08:29:40.944Z,97.08
2018-11-20T08:32:29.249Z,97.12
2018-11-20T08:35:16.806Z,97.48
2018-11-20T08:38:04.149Z,97.65
2018-11-20T08:40:51.579Z,97.79
2018-11-20T08:43:39.001Z,97.94
2018-11-20T08:46:26.439Z,97.91
2018-11-20T08:49:13.884Z,98.21
2018-11-20T08:52:01.322Z,98.47
2018-11-20T08:54:48.800Z,98.61
2018-11-20T08:57:36.274Z,98.57
2018-11-20T09:00:14.659Z,98.50
2018-11-20T09:03:02.129Z,98.52
2018-11-20T09:05:49.553Z,98.41
2018-11-20T09:13:14.171Z,98.11
2018-11-20T09:16:00.868Z,98.36
2018-11-20T09:18:47.541Z,98.31
2018-11-20T09:21:34.247Z,98.22
2018-11-20T09:24:20.921Z,98.19
2018-11-20T09:27:07.623Z,98.10
2018-11-20T09:29:54.268Z,98.00
2018-11-20T09:32:40.977Z,98.18
2018-11-20T09:35:27.819Z,98.23
2018-11-20T09:38:09.969Z,98.25
2018-11-20T09:41:07.020Z,97.96
2018-11-20T09:43:45.216Z,97.99
2018-11-20T09:46:31.939Z,97.97
2018-11-20T09:49:18.559Z,98.17
2018-11-20T09:52:05.271Z,98.08
2018-11-20T09:54:52.036Z,98.10
2018-11-20T09:57:38.685Z,98.11
2018-11-20T10:00:26.289Z,97.96
2018-11-20T10:03:12.950Z,97.95
2018-11-20T10:05:59.635Z,97.85
2018-11-20T10:08:46.359Z,97.73
2018-11-20T10:11:33.020Z,97.68
2018-11-20T10:14:19.837Z,97.54
2018-11-20T10:17:06.409Z,97.66
2018-11-20T10:19:47.072Z,97.62
2018-11-20T10:22:33.723Z,97.71
2018-11-20T10:25:20.432Z,97.67
2018-11-20T10:28:07.038Z,97.44
2018-11-20T10:30:53.338Z,97.15
2018-11-20T10:33:40.002Z,97.03
2018-11-20T10:36:26.637Z,97.36
2018-11-20T10:39:13.319Z,97.39
2018-11-20T10:41:59.984Z,96.96
2018-11-20T10:44:46.660Z,96.90
2018-11-20T10:47:33.316Z,97.11
2018-11-20T10:50:19.969Z,97.41
2018-11-20T10:53:06.631Z,97.83
2018-11-20T10:55:53.280Z,97.99
2018-11-20T10:58:39.931Z,98.22
2018-11-20T11:01:26.607Z,98.34
2018-11-20T11:04:13.324Z,98.15
2018-11-20T11:07:00.243Z,98.21
2018-11-20T11:09:46.598Z,98.24
2018-11-20T11:12:26.279Z,98.01
2018-11-20T11:15:12.893Z,98.06
2018-11-20T11:17:59.734Z,97.92
2018-11-20T11:20:46.446Z,97.83
2018-11-20T11:23:33.119Z,97.71
2018-11-20T11:26:19.757Z,97.43
2018-11-20T11:28:57.112Z,97.11
2018-11-20T11:31:43.731Z,96.95
2018-11-20T11:34:30.392Z,96.63
2018-11-20T11:37:17.034Z,96.50
2018-11-20T11:40:03.655Z,96.50
2018-11-20T11:42:50.329Z,96.42
2018-11-20T11:45:33.734Z,96.62
2018-11-20T11:48:20.352Z,96.32
2018-11-20T11:51:07.001Z,96.23
2018-11-20T11:53:43.698Z,96.04
2018-11-20T11:56:30.360Z,96.18
2018-11-20T11:59:17.001Z,96.42
2018-11-20T12:04:49.823Z,95.90
2018-11-20T12:07:36.535Z,95.82
2018-11-20T12:10:23.867Z,96.09
2018-11-20T12:15:56.753Z,95.55
2018-11-20T12:18:43.406Z,95.85
2018-11-20T12:21:30.094Z,95.86
2018-11-20T12:24:16.760Z,96.07
2018-11-20T12:27:04.423Z,95.76
2018-11-20T12:29:50.064Z,96.08
2018-11-20T12:32:37.693Z,95.92
2018-11-20T12:35:33.320Z,95.71
2018-11-20T12:38:11.258Z,95.69
2018-11-20T12:40:57.887Z,95.61
2018-11-20T12:43:44.582Z,95.74
2018-11-20T12:46:32.256Z,95.72
2018-11-20T12:49:19.103Z,95.92
2018-11-20T12:52:05.910Z,95.84
2018-11-20T12:54:52.443Z,95.80
2018-11-20T12:57:37.910Z,95.29
2018-11-20T13:00:26.107Z,95.47
2018-11-20T13:03:12.745Z,95.35
2018-11-20T13:05:59.499Z,95.32
2018-11-20T13:08:46.886Z,95.52
2018-11-20T13:11:33.546Z,95.76
2018-11-20T13:14:20.429Z,95.23
2018-11-20T13:17:07.067Z,95.68
2018-11-20T13:19:53.481Z,95.60
2018-11-20T13:22:40.208Z,94.48
2018-11-20T13:25:26.847Z,95.11
2018-11-20T13:28:13.526Z,95.36
2018-11-20T13:31:00.167Z,95.63
2018-11-20T13:33:47.966Z,95.35
2018-11-20T13:36:33.558Z,95.51
2018-11-20T13:39:20.290Z,95.60
2018-11-20T13:42:11.865Z,95.43
2018-11-20T13:45:00.326Z,95.12
2018-11-20T13:47:46.959Z,94.76
2018-11-20T13:50:33.642Z,95.92
2018-11-20T13:53:20.315Z,95.33
2018-11-20T13:56:06.970Z,95.54
2018-11-20T13:58:47.799Z,95.76
2018-11-20T14:01:34.459Z,96.18
2018-11-20T14:04:21.085Z,96.58
2018-11-20T14:07:07.753Z,95.89
2018-11-20T14:09:54.453Z,96.19
2018-11-20T14:12:41.126Z,96.08
2018-11-20T14:15:27.772Z,96.67
2018-11-20T14:18:14.485Z,96.32
2018-11-20T14:21:01.564Z,96.00
2018-11-20T14:23:48.240Z,96.06
2018-11-20T14:26:34.857Z,96.26
2018-11-20T14:29:21.502Z,96.67
2018-11-20T14:32:08.161Z,96.20
2018-11-20T14:34:54.833Z,96.59
2018-11-20T14:37:41.474Z,97.04
2018-11-20T14:40:28.162Z,97.19
2018-11-20T14:43:14.840Z,96.81
2018-11-20T14:46:01.511Z,96.73
2018-11-20T14:48:48.145Z,96.75
2018-11-20T14:51:34.831Z,97.19
2018-11-20T14:54:21.483Z,97.20
2018-11-20T14:57:08.159Z,96.52
2018-11-20T14:59:54.841Z,96.47
2018-11-20T15:02:41.524Z,96.76
2018-11-20T15:05:43.122Z,96.61
2018-11-20T15:08:29.872Z,96.85
2018-11-20T15:11:16.527Z,96.91
2018-11-20T15:13:59.570Z,96.91
2018-11-20T15:16:46.248Z,96.86
2018-11-20T15:19:32.950Z,96.52
2018-11-20T15:22:19.623Z,96.32
2018-11-20T15:25:06.349Z,96.68
2018-11-20T15:27:53.139Z,97.12
2018-11-20T15:30:39.827Z,97.40
2018-11-20T15:33:26.539Z,96.80
2018-11-20T15:36:13.223Z,96.30
2018-11-20T15:38:59.898Z,96.39
2018-11-20T15:41:46.660Z,97.14
2018-11-20T15:44:33.323Z,97.18
2018-11-20T15:47:20.204Z,97.17
2018-11-20T15:50:06.863Z,96.60
2018-11-20T15:52:53.528Z,96.09
2018-11-20T15:55:40.196Z,96.50
2018-11-20T15:58:26.864Z,96.85
2018-11-20T16:01:13.532Z,97.06
2018-11-20T16:04:00.196Z,97.07
2018-11-20T16:06:46.951Z,96.59
2018-11-20T16:09:33.602Z,96.36
2018-11-20T16:12:20.346Z,96.41
2018-11-20T16:15:07.181Z,96.53
2018-11-20T16:17:54.076Z,96.52
2018-11-20T16:20:40.821Z,96.26
2018-11-20T16:23:27.489Z,95.66
2018-11-20T16:26:14.150Z,95.57
2018-11-20T16:29:00.818Z,96.22
2018-11-20T16:31:47.502Z,96.80
2018-11-20T16:34:34.224Z,97.12
2018-11-20T16:37:20.895Z,96.37
2018-11-20T16:40:07.576Z,96.46
2018-11-20T16:42:54.275Z,96.30
2018-11-20T16:45:41.012Z,95.74
2018-11-20T16:48:27.947Z,95.75
2018-11-20T16:51:14.660Z,96.04
2018-11-20T16:54:01.343Z,96.39
2018-11-20T16:56:48.072Z,96.54
2018-11-20T16:59:34.760Z,95.79
2018-11-20T17:02:21.509Z,95.34
2018-11-20T17:05:08.256Z,96.11
2018-11-20T17:07:56.255Z,96.44
2018-11-20T17:10:41.688Z,96.83
2018-11-20T17:13:28.343Z,96.17
2018-11-20T17:16:15.072Z,95.70
2018-11-20T17:19:01.734Z,95.77
2018-11-20T17:21:48.414Z,95.98
2018-11-20T17:24:32.314Z,96.69
2018-11-20T17:27:19.002Z,96.86
2018-11-20T17:30:05.676Z,96.57
2018-11-20T17:32:52.374Z,95.94
2018-11-20T17:35:39.083Z,96.16
2018-11-20T17:38:25.760Z,96.56
2018-11-20T17:41:12.452Z,96.64
2018-11-20T17:43:59.120Z,95.89
2018-11-20T17:46:45.761Z,95.92
2018-11-20T17:49:32.417Z,95.90
2018-11-20T17:52:19.063Z,96.03
2018-11-20T17:55:05.777Z,96.20
2018-11-20T17:57:57.025Z,96.28
2018-11-20T18:00:39.106Z,95.97
2018-11-20T18:03:25.792Z,95.82
2018-11-20T18:06:12.479Z,96.04
2018-11-20T18:08:59.166Z,96.23
2018-11-20T18:11:45.867Z,96.08
2018-11-20T18:14:32.547Z,96.04
2018-11-20T18:17:20.337Z,96.20
2018-11-20T18:20:05.876Z,96.38
2018-11-20T18:22:52.630Z,96.16
2018-11-20T18:25:39.353Z,96.02
2018-11-20T18:28:26.067Z,95.87
2018-11-20T18:31:13.749Z,96.00
2018-11-20T18:34:00.429Z,95.77
2018-11-20T18:36:47.190Z,95.62
2018-11-20T18:39:33.872Z,95.86
2018-11-20T18:42:20.533Z,95.95
2018-11-20T18:45:07.214Z,95.54
2018-11-20T18:47:53.881Z,95.68
2018-11-20T18:50:40.562Z,95.53
2018-11-20T18:53:27.250Z,95.77
2018-11-20T18:56:13.928Z,96.00
2018-11-20T18:59:00.602Z,95.82
2018-11-20T19:01:47.271Z,95.80
2018-11-20T19:04:33.960Z,95.42
2018-11-20T19:07:20.633Z,95.43
2018-11-20T19:10:07.323Z,95.59
2018-11-20T19:12:54.006Z,95.48
2018-11-20T19:15:40.690Z,95.44
2018-11-20T19:18:27.349Z,95.45
2018-11-20T19:21:14.044Z,95.54
2018-11-20T19:24:00.703Z,95.67
2018-11-20T19:26:47.373Z,95.59
2018-11-20T19:29:34.017Z,94.92
2018-11-20T19:32:20.741Z,95.02
2018-11-20T19:35:07.412Z,95.40
2018-11-20T19:37:54.113Z,95.61
2018-11-20T19:40:40.787Z,95.53
2018-11-20T19:43:30.057Z,95.69
2018-11-20T19:46:16.772Z,95.70
2018-11-20T19:49:03.505Z,95.43
2018-11-20T19:51:50.209Z,95.45
2018-11-20T19:54:37.011Z,95.67
2018-11-20T19:57:24.182Z,95.64
2018-11-20T20:00:10.933Z,95.75
2018-11-20T20:02:57.608Z,95.68
2018-11-20T20:05:44.299Z,95.51
2018-11-20T20:08:30.948Z,95.35
2018-11-20T20:11:07.992Z,95.27
2018-11-20T20:13:54.626Z,95.31
2018-11-20T20:16:31.139Z,95.33
2018-11-20T20:19:17.792Z,95.33
2018-11-20T20:22:04.511Z,94.94
2018-11-20T20:24:51.167Z,94.77
2018-11-20T20:27:37.856Z,94.85
2018-11-20T20:30:26.540Z,94.84
2018-11-20T20:33:13.223Z,94.79
2018-11-20T20:35:59.893Z,94.59
2018-11-20T20:38:46.569Z,94.11
2018-11-20T20:41:33.207Z,94.19
2018-11-20T20:44:19.897Z,94.46
2018-11-20T20:47:06.538Z,94.64
2018-11-20T20:49:53.201Z,94.53
2018-11-20T20:52:39.852Z,94.47
2018-11-20T20:55:26.697Z,94.41
2018-11-20T20:58:13.388Z,94.21
2018-11-20T21:01:00.054Z,93.76
2018-11-20T21:03:40.547Z,94.02
2018-11-20T21:06:27.222Z,94.08
2018-11-20T21:09:14.312Z,94.10
2018-11-20T21:12:01.011Z,94.08
2018-11-20T21:14:47.736Z,94.10
2018-11-20T21:17:34.393Z,94.16
2018-11-20T21:20:21.077Z,94.12
2018-11-20T21:23:07.786Z,94.17
2018-11-20T21:25:54.479Z,93.95
2018-11-20T21:28:41.173Z,93.96
2018-11-20T21:31:47.300Z,93.80
2018-11-20T21:34:33.972Z,93.76
2018-11-20T21:37:20.665Z,93.93
2018-11-20T21:40:07.310Z,94.01
2018-11-20T21:42:54.007Z,93.79
2018-11-20T21:45:40.691Z,93.69
2018-11-20T21:48:27.377Z,93.49
2018-11-20T21:51:14.021Z,93.47
2018-11-20T21:54:00.688Z,93.26
2018-11-20T21:56:47.406Z,93.18
2018-11-20T21:59:37.830Z,93.53
2018-11-20T22:02:25.233Z,93.60
2018-11-20T22:05:11.919Z,93.68
2018-11-20T22:07:58.619Z,93.75
2018-11-20T22:10:45.314Z,93.72
2018-11-20T22:13:31.978Z,93.50
2018-11-20T22:16:18.662Z,93.63
2018-11-20T22:19:05.311Z,93.45
2018-11-20T22:21:52.052Z,93.54
2018-11-20T22:24:38.769Z,93.66
2018-11-20T22:27:25.956Z,93.52
2018-11-20T22:30:12.640Z,93.16
2018-11-20T22:32:59.780Z,93.19
2018-11-20T22:35:47.503Z,93.48
2018-11-20T22:38:34.343Z,93.27
2018-11-20T22:44:15.869Z,92.87
2018-11-20T22:47:03.175Z,93.29
2018-11-20T22:49:50.168Z,93.21
2018-11-20T22:52:36.811Z,93.28
2018-11-20T22:55:23.920Z,93.14
2018-11-20T22:58:10.550Z,92.95
2018-11-20T23:00:57.267Z,93.06
2018-11-20T23:03:43.945Z,93.13
2018-11-20T23:06:29.683Z,93.07
2018-11-20T23:08:56.849Z,92.66
2018-11-20T23:11:24.071Z,92.63
2018-11-20T23:13:51.312Z,92.67
2018-11-20T23:16:18.499Z,92.85
2018-11-20T23:18:45.714Z,92.53
2018-11-20T23:21:12.942Z,92.89
2018-11-20T23:23:40.148Z,93.00
2018-11-20T23:26:07.348Z,93.07
2018-11-20T23:28:34.485Z,92.93
2018-11-20T23:31:01.704Z,92.43
2018-11-20T23:33:28.896Z,92.65
2018-11-20T23:35:56.113Z,92.97
2018-11-20T23:38:23.316Z,92.96
2018-11-20T23:40:50.583Z,92.75
2018-11-20T23:43:17.823Z,92.82
2018-11-20T23:45:45.041Z,92.86
2018-11-20T23:48:12.228Z,92.73
2018-11-20T23:50:39.415Z,92.84
2018-11-20T23:53:06.568Z,93.04
2018-11-20T23:55:33.782Z,92.82
2018-11-20T23:58:00.977Z,92.65
